Station Historical Data
Daily Summary for March 7, 2018 Units:  Metric    English   Both
« Previous Day
Next Day »
Daily Weekly Monthly Yearly Custom
  High: Low: Average:
Temperature: 3.6 °C -3.8 °C 0 °C
Dew Point: 0.6 °C -5.5 °C -2.3 °C
Humidity: 90% 71% 84%
Wind Speed: 20.9km/h 0km/h 4.7km/h
Wind Gust: 29km/h - -
Wind- - SSW
Pressure: 1009.4 hPa 1005.6 hPa -
Precipitation: 0 mm    
Historical Graphs
 
 
Tabular Data for March 7, 2018
Time Temperature Dew Point Pressure Wind Wind Speed Wind Gust Humidity Rainfall Rate (Hourly)
00:04 -1.4 °C -3.7 °C 1007.3 hPa Calm     85% 0 mm
00:09 -1.5 °C -3.7 °C 1007.3 hPa Calm   3.2 km/h 85% 0 mm
00:14 -1.6 °C -3.8 °C 1007.3 hPa Calm   3.2 km/h 85% 0 mm
00:19 -1.8 °C -3.9 °C 1007.3 hPa Calm     85% 0 mm
00:24 -1.9 °C -4.1 °C 1007.3 hPa Calm     85% 0 mm
00:29 -2.2 °C -4.3 °C 1007.3 hPa Calm     85% 0 mm
00:34 -2.1 °C -4.1 °C 1007 hPa Calm   1.6 km/h 86% 0 mm
00:39 -2.1 °C -4.1 °C 1007 hPa Calm   1.6 km/h 86% 0 mm
00:44 -2.1 °C -4.1 °C 1007.3 hPa Calm     86% 0 mm
00:49 -2.1 °C -4.1 °C 1007 hPa Calm     86% 0 mm
00:54 -2.1 °C -4.1 °C 1007 hPa Calm     86% 0 mm
00:59 -2.1 °C -3.9 °C 1007 hPa Calm     87% 0 mm
01:04 -2.1 °C -4.1 °C 1007 hPa Calm     86% 0 mm
01:09 -2.1 °C -4.1 °C 1007 hPa Calm     86% 0 mm
01:14 -2.2 °C -4.2 °C 1007 hPa Calm     86% 0 mm
01:19 -2.3 °C -4.3 °C 1007 hPa Calm     86% 0 mm
01:24 -2.3 °C -4.2 °C 1007 hPa Calm     87% 0 mm
01:29 -2.3 °C -4.2 °C 1007 hPa Calm     87% 0 mm
01:34 -2.3 °C -4.2 °C 1007 hPa Calm     87% 0 mm
01:39 -2.3 °C -4.2 °C 1007 hPa Calm     87% 0 mm
01:44 -2.3 °C -4.2 °C 1007 hPa Calm     87% 0 mm
01:49 -2.2 °C -4.1 °C 1006.7 hPa Calm     87% 0 mm
01:54 -2.1 °C -4 °C 1006.7 hPa Calm     87% 0 mm
01:59 -2 °C -4.1 °C 1006.7 hPa Calm     86% 0 mm
02:04 -1.9 °C -4 °C 1006.7 hPa Calm     86% 0 mm
02:09 -1.8 °C -3.7 °C 1006.7 hPa Calm     87% 0 mm
02:14 -1.8 °C -3.8 °C 1006.7 hPa Calm     86% 0 mm
02:19 -1.8 °C -3.8 °C 1006.7 hPa Calm   3.2 km/h 86% 0 mm
02:24 -1.8 °C -3.8 °C 1006.7 hPa Calm   1.6 km/h 86% 0 mm
02:29 -1.8 °C -3.9 °C 1006.7 hPa ESE 1.6 km/h 4.8 km/h 86% 0 mm
02:34 -1.9 °C -3.9 °C 1006.3 hPa Calm   4.8 km/h 86% 0 mm
02:39 -2 °C -4.1 °C 1006.3 hPa Calm   3.2 km/h 86% 0 mm
02:44 -2.1 °C -4.1 °C 1006.3 hPa Calm     86% 0 mm
02:49 -2.1 °C -4.1 °C 1006.3 hPa Calm     86% 0 mm
02:54 -2.2 °C -4.2 °C 1006.7 hPa Calm     86% 0 mm
02:59 -2.3 °C -4.3 °C 1006.3 hPa Calm     86% 0 mm
03:04 -2.3 °C -4.3 °C 1006.3 hPa Calm     86% 0 mm
03:09 -2.3 °C -4.3 °C 1006.3 hPa Calm     86% 0 mm
03:14 -2.4 °C -4.4 °C 1006.3 hPa Calm     86% 0 mm
03:19 -2.4 °C -4.4 °C 1006.3 hPa Calm     86% 0 mm
03:24 -2.6 °C -4.6 °C 1006.3 hPa Calm     86% 0 mm
03:29 -2.8 °C -4.8 °C 1006.3 hPa Calm     86% 0 mm
03:34 -3 °C -4.8 °C 1006.3 hPa Calm     87% 0 mm
03:39 -3.2 °C -5.2 °C 1006.7 hPa Calm     86% 0 mm
03:44 -3.4 °C -5.4 °C 1006.3 hPa Calm     86% 0 mm
03:49 -3.6 °C -5.4 °C 1006.3 hPa Calm     87% 0 mm
03:54 -3.6 °C -5.4 °C 1006.3 hPa Calm     87% 0 mm
03:59 -3.6 °C -5.4 °C 1006.3 hPa Calm     87% 0 mm
04:09 -3.8 °C -5.5 °C 1006.3 hPa Calm     88% 0 mm
04:14 -3.7 °C -5.4 °C 1006.3 hPa Calm     88% 0 mm
04:19 -3.7 °C -5.4 °C 1006.3 hPa Calm     88% 0 mm
04:24 -3.5 °C -5.2 °C 1006.3 hPa Calm     88% 0 mm
04:30 -3.2 °C -4.8 °C 1006 hPa Calm     89% 0 mm
04:35 -3.2 °C -4.9 °C 1006 hPa Calm     88% 0 mm
04:44 -3.3 °C -5.1 °C 1006 hPa Calm     88% 0 mm
04:49 -3.3 °C -4.8 °C 1005.6 hPa Calm     89% 0 mm
04:54 -3.3 °C -4.8 °C 1005.6 hPa Calm     89% 0 mm
04:59 -3.2 °C -4.8 °C 1005.6 hPa Calm     89% 0 mm
05:04 -3.2 °C -4.8 °C 1006 hPa Calm     89% 0 mm
05:09 -3.3 °C -4.8 °C 1005.6 hPa Calm     89% 0 mm
05:14 -3.3 °C -4.9 °C 1005.6 hPa Calm     89% 0 mm
05:19 -3.4 °C -4.9 °C 1005.6 hPa Calm     89% 0 mm
05:24 -3.4 °C -5 °C 1006 hPa Calm     89% 0 mm
05:29 -3.3 °C -4.8 °C 1006 hPa Calm     89% 0 mm
05:34 -3.2 °C -4.8 °C 1006 hPa Calm     89% 0 mm
05:39 -3.3 °C -4.8 °C 1006 hPa Calm     89% 0 mm
05:44 -3.2 °C -4.7 °C 1006 hPa Calm     89% 0 mm
05:49 -3.1 °C -4.7 °C 1006 hPa Calm     89% 0 mm
05:54 -3 °C -4.6 °C 1006 hPa Calm     89% 0 mm
05:59 -3.1 °C -4.6 °C 1006.3 hPa Calm     89% 0 mm
06:04 -3.2 °C -4.7 °C 1006.3 hPa Calm     89% 0 mm
06:09 -3.2 °C -4.8 °C 1006.3 hPa Calm     89% 0 mm
06:14 -3.3 °C -4.8 °C 1006.3 hPa Calm     89% 0 mm
06:19 -3.3 °C -4.9 °C 1006.3 hPa Calm     89% 0 mm
06:24 -3.4 °C -4.9 °C 1006.3 hPa Calm     89% 0 mm
06:29 -3.3 °C -4.8 °C 1006.3 hPa Calm     89% 0 mm
06:34 -3.3 °C -4.7 °C 1006.3 hPa Calm     90% 0 mm
06:39 -3.1 °C -4.4 °C 1006.3 hPa Calm     90% 0 mm
06:44 -2.7 °C -4.1 °C 1006.3 hPa ESE 1.6 km/h 1.6 km/h 90% 0 mm
06:49 -2.4 °C -3.8 °C 1006.3 hPa Calm   1.6 km/h 90% 0 mm
06:54 -2.3 °C -3.7 °C 1006.3 hPa Calm     90% 0 mm
06:59 -2.2 °C -3.7 °C 1006.3 hPa Calm     89% 0 mm
07:04 -2.2 °C -3.8 °C 1006.3 hPa Calm     89% 0 mm
07:09 -2.3 °C -3.8 °C 1006.3 hPa Calm     89% 0 mm
07:14 -2.1 °C -3.7 °C 1006.3 hPa Calm     89% 0 mm
07:19 -1.9 °C -3.5 °C 1006.3 hPa Calm     89% 0 mm
07:24 -1.7 °C -3.3 °C 1006.3 hPa Calm     89% 0 mm
07:29 -1.6 °C -3.1 °C 1006.3 hPa Calm     89% 0 mm
07:34 -1.3 °C -2.9 °C 1006.3 hPa Calm     89% 0 mm
07:39 -1.2 °C -2.7 °C 1006.3 hPa Calm     89% 0 mm
07:44 -0.9 °C -2.6 °C 1006.3 hPa Calm   3.2 km/h 89% 0 mm
07:49 -0.8 °C -2.6 °C 1006.3 hPa Calm   3.2 km/h 88% 0 mm
07:54 -0.7 °C -2.4 °C 1006.3 hPa Calm   1.6 km/h 88% 0 mm
07:59 -0.6 °C -2.5 °C 1006.3 hPa Calm     87% 0 mm
08:04 -0.5 °C -2.4 °C 1006.3 hPa Calm     87% 0 mm
08:09 -0.3 °C -2.2 °C 1006.3 hPa Calm     87% 0 mm
08:14 -0.2 °C -2.3 °C 1006.3 hPa Calm     86% 0 mm
08:19 -0.2 °C -2.2 °C 1006.3 hPa Calm     86% 0 mm
08:24 -0.1 °C -2.1 °C 1006.3 hPa Calm     86% 0 mm
08:29 0.1 °C -2.1 °C 1006.3 hPa Calm     85% 0 mm
08:34 0.2 °C -2 °C 1006.3 hPa Calm   4.8 km/h 85% 0 mm
08:39 0.3 °C -2.1 °C 1006.3 hPa East 1.6 km/h 8 km/h 84% 0 mm
08:44 0.4 °C -2 °C 1006.3 hPa East 1.6 km/h 8 km/h 84% 0 mm
08:49 0.4 °C -1.9 °C 1006.3 hPa Calm   8 km/h 84% 0 mm
08:54 0.6 °C -2 °C 1006.3 hPa East 1.6 km/h 8 km/h 83% 0 mm
08:59 0.7 °C -2 °C 1006.3 hPa Calm   3.2 km/h 82% 0 mm
09:04 0.8 °C -1.9 °C 1006.3 hPa Calm   4.8 km/h 82% 0 mm
09:09 1.1 °C -1.8 °C 1006.3 hPa Calm   8 km/h 81% 0 mm
09:14 1.2 °C -1.9 °C 1006.3 hPa ENE 4.8 km/h 11.3 km/h 80% 0 mm
09:19 1.2 °C -1.8 °C 1006.3 hPa Calm   9.7 km/h 80% 0 mm
09:24 1.3 °C -1.7 °C 1006.3 hPa ENE 3.2 km/h 9.7 km/h 80% 0 mm
09:29 1.4 °C -1.6 °C 1006.3 hPa ENE 1.6 km/h 6.4 km/h 80% 0 mm
09:34 1.3 °C -1.9 °C 1006.3 hPa East 1.6 km/h 8 km/h 79% 0 mm
09:39 1.4 °C -1.8 °C 1006.3 hPa East 3.2 km/h 8 km/h 79% 0 mm
09:44 1.6 °C -1.7 °C 1006.3 hPa ENE 1.6 km/h 8 km/h 79% 0 mm
09:49 1.6 °C -1.7 °C 1006.3 hPa ENE 3.2 km/h 12.9 km/h 79% 0 mm
09:54 1.6 °C -1.9 °C 1006.3 hPa East 4.8 km/h 11.3 km/h 78% 0 mm
09:59 1.8 °C -1.7 °C 1006.3 hPa East 3.2 km/h 11.3 km/h 78% 0 mm
10:04 1.8 °C -1.6 °C 1006.3 hPa East 3.2 km/h 12.9 km/h 78% 0 mm
10:09 1.8 °C -1.8 °C 1006 hPa ENE 3.2 km/h 12.9 km/h 77% 0 mm
10:14 2.1 °C -1.6 °C 1006 hPa ENE 4.8 km/h 6.4 km/h 77% 0 mm
10:19 2.2 °C -1.6 °C 1006.3 hPa East 4.8 km/h 12.9 km/h 76% 0 mm
10:24 2.1 °C -1.7 °C 1006.3 hPa Calm   11.3 km/h 76% 0 mm
10:29 2.2 °C -1.6 °C 1006 hPa ENE 4.8 km/h 11.3 km/h 76% 0 mm
10:34 2.3 °C -1.5 °C 1006 hPa East 4.8 km/h 11.3 km/h 76% 0 mm
10:39 2.4 °C -1.3 °C 1006.3 hPa East 3.2 km/h 9.7 km/h 76% 0 mm
10:44 2.5 °C -1.5 °C 1006.3 hPa East 1.6 km/h 9.7 km/h 75% 0 mm
10:49 2.4 °C -1.6 °C 1006 hPa ENE 3.2 km/h 11.3 km/h 75% 0 mm
10:54 2.4 °C -1.6 °C 1006 hPa ENE 3.2 km/h 6.4 km/h 75% 0 mm
10:59 2.4 °C -1.7 °C 1006 hPa East 1.6 km/h 9.7 km/h 74% 0 mm
11:04 2.5 °C -1.7 °C 1006.3 hPa East 8 km/h 9.7 km/h 74% 0 mm
11:09 2.6 °C -1.6 °C 1006.3 hPa East 3.2 km/h 9.7 km/h 74% 0 mm
11:14 2.6 °C -1.6 °C 1006.3 hPa East 3.2 km/h 9.7 km/h 74% 0 mm
11:19 2.7 °C -1.5 °C 1006.3 hPa ENE 3.2 km/h 9.7 km/h 74% 0 mm
11:24 2.7 °C -1.4 °C 1006.3 hPa Calm   6.4 km/h 74% 0 mm
11:29 2.8 °C -1.4 °C 1006.3 hPa ENE 4.8 km/h 8 km/h 74% 0 mm
11:34 2.7 °C -1.6 °C 1006.3 hPa NE 4.8 km/h 6.4 km/h 73% 0 mm
11:39 2.7 °C -1.6 °C 1006.3 hPa NE 3.2 km/h 6.4 km/h 73% 0 mm
11:44 2.8 °C -1.6 °C 1006.3 hPa NE 3.2 km/h 6.4 km/h 73% 0 mm
11:49 2.9 °C -1.5 °C 1006.3 hPa NE 3.2 km/h 6.4 km/h 73% 0 mm
11:54 2.9 °C -1.4 °C 1006.3 hPa NE 1.6 km/h 6.4 km/h 73% 0 mm
11:59 3.1 °C -1.3 °C 1006.3 hPa NE 1.6 km/h 4.8 km/h 73% 0 mm
12:04 3.2 °C -1.4 °C 1006.3 hPa Calm   4.8 km/h 72% 0 mm
12:09 3.3 °C -1.3 °C 1006.3 hPa Calm     72% 0 mm
12:14 3.2 °C -1.6 °C 1006.3 hPa Calm     71% 0 mm
12:19 3.2 °C -1.4 °C 1006.3 hPa NE 1.6 km/h 4.8 km/h 72% 0 mm
12:24 3.2 °C -1.4 °C 1006.3 hPa Calm   4.8 km/h 72% 0 mm
12:29 3.2 °C -1.4 °C 1006.3 hPa NNE 1.6 km/h 6.4 km/h 72% 0 mm
12:34 3.1 °C -1.3 °C 1006.3 hPa Calm     73% 0 mm
12:39 3.1 °C -1.3 °C 1006.3 hPa Calm   6.4 km/h 73% 0 mm
12:44 3.1 °C -1.1 °C 1006.3 hPa SSW 1.6 km/h 9.7 km/h 74% 0 mm
12:49 2.9 °C -1.1 °C 1006.3 hPa WSW 6.4 km/h 14.5 km/h 75% 0 mm
12:54 2.6 °C -1 °C 1006.3 hPa SW 6.4 km/h 14.5 km/h 77% 0 mm
12:59 2.3 °C -0.9 °C 1006.3 hPa SW 8 km/h 12.9 km/h 79% 0 mm
13:04 2.2 °C -0.8 °C 1006.3 hPa SW 4.8 km/h 9.7 km/h 81% 0 mm
13:09 2.2 °C -0.4 °C 1006.3 hPa SW 4.8 km/h 9.7 km/h 83% 0 mm
13:14 2.3 °C -0.1 °C 1006.3 hPa SW 4.8 km/h 8 km/h 84% 0 mm
13:19 2.3 °C -0.2 °C 1006.3 hPa SW 6.4 km/h 12.9 km/h 84% 0 mm
13:24 2.2 °C -0.1 °C 1006.3 hPa SW 6.4 km/h 12.9 km/h 85% 0 mm
13:29 2.1 °C -0.2 °C 1006.3 hPa SW 6.4 km/h 12.9 km/h 85% 0 mm
13:34 2.1 °C -0.1 °C 1006.3 hPa WSW 8 km/h 17.7 km/h 86% 0 mm
13:39 1.9 °C -0.2 °C 1006.3 hPa WSW 9.7 km/h 17.7 km/h 86% 0.25 mm
13:44 1.8 °C -0.3 °C 1006.3 hPa SW 9.7 km/h 19.3 km/h 86% 0.25 mm
13:49 1.8 °C -0.2 °C 1006.3 hPa WSW 8 km/h 14.5 km/h 87% 0.25 mm
13:54 1.7 °C -0.2 °C 1006.3 hPa SW 9.7 km/h 16.1 km/h 87% 0.25 mm
13:59 1.6 °C -0.3 °C 1006.3 hPa WSW 8 km/h 20.9 km/h 87% 0.25 mm
14:04 1.6 °C -0.4 °C 1006.3 hPa WSW 8 km/h 20.9 km/h 87% 0.25 mm
14:09 1.6 °C -0.3 °C 1006.3 hPa WSW 8 km/h 12.9 km/h 87% 0.25 mm
14:14 1.7 °C -0.1 °C 1006.3 hPa West 6.4 km/h 19.3 km/h 88% 0.25 mm
14:19 1.7 °C -0.1 °C 1006.3 hPa West 6.4 km/h 19.3 km/h 88% 0.25 mm
14:24 1.6 °C -0.2 °C 1006.3 hPa SW 14.5 km/h 20.9 km/h 88% 0.25 mm
14:29 1.6 °C -0.2 °C 1006.3 hPa WSW 8 km/h 20.9 km/h 88% 0.25 mm
14:34 1.5 °C -0.3 °C 1006.3 hPa WSW 9.7 km/h 20.9 km/h 88% 0.25 mm
14:39 1.4 °C -0.4 °C 1006.3 hPa WSW 9.7 km/h 22.5 km/h 88% 0 mm
14:44 1.4 °C -0.3 °C 1006.7 hPa WSW 9.7 km/h 22.5 km/h 88% 0 mm
14:49 1.6 °C -0.2 °C 1006.3 hPa WSW 8 km/h 12.9 km/h 88% 0 mm
14:54 1.6 °C -0.2 °C 1006.7 hPa West 6.4 km/h 16.1 km/h 88% 0 mm
14:59 1.7 °C -0.1 °C 1006.7 hPa West 6.4 km/h 12.9 km/h 88% 0 mm
15:04 1.8 °C -0.2 °C 1006.7 hPa West 1.6 km/h 12.9 km/h 87% 0 mm
15:09 1.9 °C 0 °C 1006.7 hPa SW 4.8 km/h 11.3 km/h 87% 0 mm
15:14 2.1 °C -0.1 °C 1006.7 hPa West 4.8 km/h 11.3 km/h 86% 0 mm
15:24 2.4 °C -0.1 °C 1007 hPa WSW 4.8 km/h 9.7 km/h 84% 0 mm
15:29 2.6 °C 0.1 °C 1007 hPa WSW 3.2 km/h 8 km/h 84% 0 mm
15:34 2.8 °C 0.2 °C 1007 hPa WSW 4.8 km/h 12.9 km/h 83% 0 mm
15:40 3.3 °C 0.6 °C 1007 hPa SW 4.8 km/h 12.9 km/h 82% 0 mm
15:50 3.6 °C 0.4 °C 1007.3 hPa SSW 6.4 km/h 11.3 km/h 80% 0 mm
15:59 2.6 °C -0.2 °C 1007.3 hPa South 6.4 km/h 11.3 km/h 82% 0 mm
16:04 2.4 °C -0.4 °C 1007.3 hPa SSW 8 km/h 14.5 km/h 82% 0 mm
16:09 2.3 °C -0.3 °C 1007.3 hPa SW 8 km/h 14.5 km/h 83% 0 mm
16:14 2.2 °C -0.4 °C 1007.3 hPa SW 3.2 km/h 12.9 km/h 83% 0 mm
16:19 2.2 °C -0.4 °C 1007.7 hPa SSW 6.4 km/h 12.9 km/h 83% 0 mm
16:24 2.2 °C -0.4 °C 1007.3 hPa SW 6.4 km/h 14.5 km/h 83% 0 mm
16:29 2.2 °C -0.3 °C 1007.7 hPa SW 6.4 km/h 17.7 km/h 84% 0 mm
16:39 2.2 °C -0.2 °C 1007.7 hPa SSW 6.4 km/h 14.5 km/h 84% 0 mm
16:44 2.3 °C -0.3 °C 1007.7 hPa SW 9.7 km/h 12.9 km/h 83% 0 mm
16:49 2.4 °C -0.2 °C 1007.7 hPa SSW 8 km/h 12.9 km/h 83% 0 mm
16:54 2.4 °C -0.3 °C 1007.7 hPa SSW 6.4 km/h 14.5 km/h 82% 0 mm
16:59 2.2 °C -0.6 °C 1007.7 hPa SW 6.4 km/h 14.5 km/h 82% 0 mm
17:04 1.9 °C -0.7 °C 1007.7 hPa SW 8 km/h 17.7 km/h 83% 0 mm
17:09 1.9 °C -0.7 °C 1007.7 hPa SW 8 km/h 17.7 km/h 83% 0 mm
17:14 1.8 °C -0.7 °C 1007.7 hPa SW 8 km/h 14.5 km/h 83% 0 mm
17:19 1.7 °C -0.8 °C 1007.7 hPa SW 6.4 km/h 11.3 km/h 83% 0 mm
17:24 1.6 °C -0.9 °C 1008 hPa SW 6.4 km/h 14.5 km/h 83% 0 mm
17:29 1.5 °C -1.1 °C 1008 hPa SW 6.4 km/h 14.5 km/h 83% 0 mm
17:34 1.4 °C -1.1 °C 1008 hPa WSW 6.4 km/h 12.9 km/h 83% 0 mm
17:39 1.4 °C -1.2 °C 1008.4 hPa SW 12.9 km/h 12.9 km/h 83% 0 mm
17:44 1.3 °C -1.1 °C 1008.4 hPa SW 6.4 km/h 12.9 km/h 84% 0 mm
17:49 1.3 °C -1.1 °C 1008.4 hPa SW 4.8 km/h 8 km/h 84% 0 mm
17:54 1.2 °C -1.2 °C 1008.4 hPa SW 11.3 km/h 12.9 km/h 84% 0 mm
17:59 1.2 °C -1.2 °C 1008.4 hPa WSW 11.3 km/h 14.5 km/h 84% 0 mm
18:04 1.1 °C -1.3 °C 1008.4 hPa SW 8 km/h 16.1 km/h 84% 0 mm
18:09 1.1 °C -1.3 °C 1008.4 hPa WSW 9.7 km/h 16.1 km/h 84% 0 mm
18:14 1.1 °C -1.3 °C 1008.4 hPa WSW 11.3 km/h 25.7 km/h 84% 0 mm
18:19 1.1 °C -1.3 °C 1008.7 hPa WSW 11.3 km/h 25.7 km/h 84% 0 mm
18:24 1.1 °C -1.2 °C 1008.7 hPa WSW 9.7 km/h 20.9 km/h 85% 0 mm
18:29 1 °C -1.4 °C 1008.7 hPa WSW 9.7 km/h 20.9 km/h 84% 0 mm
18:34 0.9 °C -1.4 °C 1008.7 hPa South 11.3 km/h 20.9 km/h 84% 0 mm
18:39 0.9 °C -1.5 °C 1008.7 hPa WSW 9.7 km/h 22.5 km/h 84% 0 mm
18:44 0.8 °C -1.6 °C 1008.7 hPa WSW 8 km/h 17.7 km/h 84% 0 mm
18:49 0.8 °C -1.6 °C 1008.7 hPa WSW 14.5 km/h 16.1 km/h 84% 0 mm
18:54 0.7 °C -1.7 °C 1008.7 hPa SW 14.5 km/h 17.7 km/h 84% 0 mm
18:59 0.7 °C -1.7 °C 1008.7 hPa SW 8 km/h 17.7 km/h 84% 0 mm
19:04 0.6 °C -1.8 °C 1008.7 hPa WSW 8 km/h 19.3 km/h 84% 0 mm
19:09 0.6 °C -1.8 °C 1008.7 hPa South 9.7 km/h 16.1 km/h 84% 0 mm
19:14 0.6 °C -1.8 °C 1008.7 hPa SW 9.7 km/h 19.3 km/h 84% 0 mm
19:19 0.6 °C -1.8 °C 1008.7 hPa SW 9.7 km/h 19.3 km/h 84% 0 mm
19:24 0.6 °C -1.8 °C 1008.7 hPa SW 8 km/h 14.5 km/h 84% 0 mm
19:29 0.4 °C -1.9 °C 1008.7 hPa SW 8 km/h 14.5 km/h 84% 0 mm
19:34 0.4 °C -2 °C 1008.7 hPa SW 9.7 km/h 20.9 km/h 84% 0 mm
19:39 0.4 °C -2 °C 1008.7 hPa SW 9.7 km/h 24.1 km/h 84% 0 mm
19:44 0.3 °C -2.1 °C 1008.7 hPa SW 16.1 km/h 19.3 km/h 84% 0 mm
19:49 0.3 °C -2.1 °C 1008.7 hPa WSW 3.2 km/h 19.3 km/h 84% 0 mm
19:54 0.3 °C -2.1 °C 1008.7 hPa West 14.5 km/h 19.3 km/h 84% 0 mm
19:59 0.3 °C -2.1 °C 1008.7 hPa SSW 3.2 km/h 16.1 km/h 84% 0 mm
20:04 0.3 °C -2.1 °C 1008.7 hPa SSW 11.3 km/h 19.3 km/h 84% 0 mm
20:09 0.2 °C -2.2 °C 1008.7 hPa South 16.1 km/h 19.3 km/h 84% 0 mm
20:14 0.2 °C -2.2 °C 1008.7 hPa South 3.2 km/h 16.1 km/h 84% 0 mm
20:19 0.2 °C -2 °C 1008.7 hPa SW 9.7 km/h 20.9 km/h 85% 0 mm
20:24 0.2 °C -2 °C 1008.7 hPa SW 9.7 km/h 20.9 km/h 85% 0 mm
20:29 0.2 °C -2.1 °C 1008.7 hPa WSW 8 km/h 20.9 km/h 85% 0 mm
20:34 0.1 °C -1.9 °C 1008.7 hPa SW 9.7 km/h 20.9 km/h 86% 0 mm
20:39 0.1 °C -1.9 °C 1009 hPa SW 11.3 km/h 20.9 km/h 86% 0 mm
20:44 0.1 °C -2 °C 1009 hPa SW 11.3 km/h 20.9 km/h 86% 0 mm
20:49 0.1 °C -2 °C 1008.7 hPa SW 9.7 km/h 19.3 km/h 86% 0 mm
20:54 0.1 °C -2 °C 1008.7 hPa WSW 12.9 km/h 17.7 km/h 86% 0 mm
20:59 0.1 °C -1.8 °C 1008.7 hPa WSW 9.7 km/h 25.7 km/h 87% 0 mm
21:04 0.1 °C -1.8 °C 1008.7 hPa SSW 9.7 km/h 20.9 km/h 87% 0 mm
21:09 0.1 °C -1.8 °C 1009 hPa SW 11.3 km/h 19.3 km/h 87% 0 mm
21:14 0.1 °C -1.8 °C 1009 hPa SSW 14.5 km/h 27.4 km/h 87% 0 mm
21:19 0.1 °C -1.8 °C 1008.7 hPa SSW 11.3 km/h 29 km/h 87% 0 mm
21:24 0.1 °C -1.8 °C 1009 hPa SW 8 km/h 25.7 km/h 87% 0 mm
21:29 0.1 °C -1.8 °C 1009 hPa SW 12.9 km/h 25.7 km/h 87% 0 mm
21:34 0.1 °C -1.8 °C 1008.7 hPa SW 11.3 km/h 24.1 km/h 87% 0 mm
21:39 0.1 °C -1.7 °C 1008.7 hPa SW 9.7 km/h 19.3 km/h 88% 0 mm
21:44 0.1 °C -1.7 °C 1008.7 hPa SW 6.4 km/h 17.7 km/h 88% 0 mm
21:49 0.1 °C -1.7 °C 1008.7 hPa SW 9.7 km/h 24.1 km/h 88% 0 mm
21:54 0.1 °C -1.7 °C 1008.7 hPa SW 9.7 km/h 24.1 km/h 88% 0 mm
21:59 0.1 °C -1.7 °C 1008.7 hPa SW 11.3 km/h 22.5 km/h 88% 0 mm
22:04 0 °C -1.8 °C 1009 hPa SW 14.5 km/h 24.1 km/h 88% 0 mm
22:09 -0.1 °C -1.8 °C 1009 hPa SW 9.7 km/h 29 km/h 88% 0 mm
22:14 -0.1 °C -2 °C 1009 hPa SSW 20.9 km/h 24.1 km/h 87% 0 mm
22:19 -0.2 °C -2.1 °C 1009 hPa SW 14.5 km/h 24.1 km/h 87% 0 mm
22:24 -0.2 °C -2.1 °C 1009 hPa West 11.3 km/h 27.4 km/h 87% 0 mm
22:29 -0.2 °C -2.1 °C 1009 hPa WSW 6.4 km/h 20.9 km/h 87% 0 mm
22:34 -0.2 °C -2.1 °C 1009 hPa WSW 9.7 km/h 25.7 km/h 87% 0 mm
22:39 -0.2 °C -2.1 °C 1009 hPa SW 12.9 km/h 25.7 km/h 87% 0 mm
22:44 -0.2 °C -2.1 °C 1009 hPa SW 12.9 km/h 24.1 km/h 87% 0 mm
22:49 -0.2 °C -2.3 °C 1009 hPa SW 11.3 km/h 19.3 km/h 86% 0 mm
22:54 -0.3 °C -2.3 °C 1009 hPa SW 11.3 km/h 22.5 km/h 86% 0 mm
22:59 -0.3 °C -2.4 °C 1009 hPa SW 11.3 km/h 22.5 km/h 86% 0 mm
23:04 -0.3 °C -2.4 °C 1009 hPa SW 9.7 km/h 25.7 km/h 86% 0 mm
23:09 -0.4 °C -2.3 °C 1009 hPa SW 20.9 km/h 20.9 km/h 87% 0 mm
23:14 -0.4 °C -2.3 °C 1009 hPa SW 11.3 km/h 20.9 km/h 87% 0 mm
23:19 -0.4 °C -2.3 °C 1009 hPa SW 12.9 km/h 24.1 km/h 87% 0 mm
23:24 -0.4 °C -2.3 °C 1009 hPa WSW 9.7 km/h 22.5 km/h 87% 0 mm
23:29 -0.4 °C -2.3 °C 1009 hPa SW 14.5 km/h 22.5 km/h 87% 0 mm
23:34 -0.4 °C -2.3 °C 1009 hPa WSW 12.9 km/h 25.7 km/h 87% 0 mm
23:39 -0.4 °C -2.3 °C 1009 hPa WSW 11.3 km/h 24.1 km/h 87% 0 mm
23:44 -0.5 °C -2.4 °C 1009.4 hPa SW 11.3 km/h 25.7 km/h 87% 0 mm
23:49 -0.6 °C -2.7 °C 1009.4 hPa SW 12.9 km/h 25.7 km/h 86% 0 mm
23:54 -0.7 °C -2.7 °C 1009.4 hPa WSW 14.5 km/h 25.7 km/h 86% 0 mm
23:59 -0.7 °C -2.8 °C 1009.4 hPa WSW 14.5 km/h 27.4 km/h 86% 0 mm
Buffalo, New York, USA
Compliments of Weather Underground - 2.5 mb